Time;durP1;ratioP1;P1;durP2;ratioP2;P2;SDS_P1;SDS_P2;PMS_P1;PMS_P2;Temp;Humidity;BMP_temperature;BMP_pressure;BME280_temperature;BME280_humidity;BME280_pressure;Samples;Min_cycle;Max_cycle;Signal;HPM_P1;HPM_P2
2021/03/09 00:00:10;;;;;;;13.67;10.70;;;;;;;5.85;100.00;98097.06;5146234;27;20247;-71
2021/03/09 00:02:36;;;;;;;14.93;10.20;;;;;;;5.87;100.00;98095.66;5143943;27;20238;-69
2021/03/09 00:05:03;;;;;;;14.07;10.40;;;;;;;5.65;100.00;98103.78;5133214;27;20271;-70
2021/03/09 00:07:30;;;;;;;13.30;10.43;;;;;;;5.74;100.00;98101.94;5133811;27;20207;-70
2021/03/09 00:09:56;;;;;;;16.47;10.83;;;;;;;5.64;100.00;98099.41;5133725;27;20238;-69
2021/03/09 00:12:26;;;;;;;16.03;11.53;;;;;;;5.65;100.00;98101.03;5132838;27;20633;-71
2021/03/09 00:14:52;;;;;;;14.27;10.63;;;;;;;5.63;100.00;98095.06;5133637;27;20211;-71
2021/03/09 00:17:30;;;;;;;15.03;10.77;;;;;;;5.59;100.00;98098.69;5117298;27;20656;-70
2021/03/09 00:19:57;;;;;;;16.93;11.53;;;;;;;5.60;100.00;98100.31;5134397;27;20296;-71
2021/03/09 00:22:26;;;;;;;18.30;12.27;;;;;;;5.35;100.00;98107.13;5134802;27;20203;-71
2021/03/09 00:24:52;;;;;;;18.17;11.53;;;;;;;5.31;100.00;98108.84;5115767;27;20307;-70
2021/03/09 00:27:21;;;;;;;16.47;11.87;;;;;;;5.22;100.00;98102.44;5115488;27;20717;-70
2021/03/09 00:29:47;;;;;;;13.93;10.53;;;;;;;5.27;100.00;98105.13;5134963;27;20245;-71
2021/03/09 00:32:13;;;;;;;15.27;11.27;;;;;;;5.23;100.00;98106.00;5115571;27;20214;-70
2021/03/09 00:34:39;;;;;;;15.90;11.33;;;;;;;5.30;100.00;98107.22;5133426;27;20223;-69
2021/03/09 00:37:06;;;;;;;15.73;11.30;;;;;;;5.24;100.00;98102.97;5134011;27;20239;-69
2021/03/09 00:39:32;;;;;;;17.23;12.30;;;;;;;5.35;100.00;98109.84;5133745;27;20199;-69
2021/03/09 00:41:58;;;;;;;15.63;11.60;;;;;;;5.33;100.00;98103.88;5116568;27;20203;-70
2021/03/09 00:44:27;;;;;;;15.33;11.43;;;;;;;5.26;100.00;98108.94;5135387;27;20231;-71
2021/03/09 00:46:54;;;;;;;16.70;11.77;;;;;;;5.23;100.00;98101.34;5138122;27;20207;-71
2021/03/09 00:49:20;;;;;;;17.03;11.57;;;;;;;5.12;100.00;98102.66;5138154;27;20671;-70
2021/03/09 00:51:46;;;;;;;15.57;11.50;;;;;;;5.11;100.00;98101.03;5138495;27;20207;-72
2021/03/09 00:54:15;;;;;;;16.07;12.17;;;;;;;4.96;100.00;98098.59;5133489;27;20289;-71
2021/03/09 00:56:41;;;;;;;16.07;11.83;;;;;;;4.97;100.00;98092.81;5133532;27;20282;-70
2021/03/09 00:59:07;;;;;;;17.03;11.50;;;;;;;5.09;100.00;98095.06;5133325;27;20296;-69
2021/03/09 01:34:01;;;;;;;17.33;12.20;;;;;;;4.92;100.00;98068.31;5129379;27;20565;-72
2021/03/09 01:36:27;;;;;;;17.60;12.77;;;;;;;4.94;100.00;98065.28;5112049;28;20204;-72
2021/03/09 01:38:54;;;;;;;17.20;12.47;;;;;;;4.79;100.00;98055.44;5113726;28;20224;-70
2021/03/09 01:41:22;;;;;;;19.47;13.20;;;;;;;4.69;100.00;98055.63;5115598;28;20200;-72
2021/03/09 01:43:49;;;;;;;18.00;13.30;;;;;;;4.65;100.00;98062.00;5114381;28;20253;-72
2021/03/09 01:46:17;;;;;;;19.83;13.77;;;;;;;4.76;100.00;98052.50;5109556;28;20315;-71
2021/03/09 01:48:45;;;;;;;15.70;12.03;;;;;;;4.78;100.00;98045.59;5108841;28;20231;-71
2021/03/09 01:51:16;;;;;;;19.00;13.00;;;;;;;4.69;100.00;98044.69;5108878;28;20215;-72
2021/03/09 01:53:43;;;;;;;20.80;12.73;;;;;;;4.58;100.00;98042.47;5108295;28;20284;-72
2021/03/09 01:56:10;;;;;;;19.23;14.03;;;;;;;4.48;100.00;98034.44;5108839;28;20269;-72
2021/03/09 01:58:40;;;;;;;21.00;12.70;;;;;;;4.47;100.00;98035.56;5108815;28;20299;-72
2021/03/09 02:01:06;;;;;;;16.97;12.33;;;;;;;4.47;100.00;98027.38;5108871;28;20726;-72
2021/03/09 02:03:32;;;;;;;19.03;13.30;;;;;;;4.50;100.00;98033.03;5107643;28;20296;-72
2021/03/09 02:05:59;;;;;;;19.03;12.03;;;;;;;4.30;100.00;98025.19;5108503;28;20256;-72
2021/03/09 02:08:26;;;;;;;17.53;13.07;;;;;;;4.29;100.00;98023.56;5108652;28;20265;-72
2021/03/09 02:10:55;;;;;;;17.13;12.17;;;;;;;4.28;100.00;98024.69;5107394;28;20298;-72
2021/03/09 02:14:01;;;;;;;16.77;12.43;;;;;;;4.20;100.00;98027.28;5113415;28;20248;-71
2021/03/09 02:16:37;;;;;;;20.30;13.23;;;;;;;4.27;100.00;98020.31;5101137;28;20239;-70
2021/03/09 02:19:41;;;;;;;20.53;13.43;;;;;;;4.11;100.00;98019.78;5085542;28;20560;-71
2021/03/09 02:22:36;;;;;;;16.63;11.90;;;;;;;4.04;100.00;98024.81;5085084;28;20211;-70
2021/03/09 02:25:17;;;;;;;16.50;11.63;;;;;;;4.05;100.00;98026.41;5103459;28;20231;-71
2021/03/09 02:27:52;;;;;;;17.83;12.00;;;;;;;4.06;100.00;98022.59;5110768;28;20280;-72
2021/03/09 02:30:26;;;;;;;16.13;12.23;;;;;;;4.16;100.00;98013.41;5111009;28;20345;-71
2021/03/09 02:33:04;;;;;;;19.27;12.97;;;;;;;4.12;100.00;98010.47;5107289;28;20245;-72
2021/03/09 02:35:32;;;;;;;14.50;10.97;;;;;;;4.05;100.00;98011.97;5107799;28;20920;-72
2021/03/09 02:38:03;;;;;;;17.17;11.40;;;;;;;4.10;100.00;98014.63;5108031;28;20204;-71
2021/03/09 02:40:31;;;;;;;16.67;11.73;;;;;;;4.05;100.00;98018.22;5107730;28;20287;-72
2021/03/09 02:43:02;;;;;;;16.97;11.93;;;;;;;4.05;100.00;98015.50;5107324;28;20295;-71
2021/03/09 02:45:29;;;;;;;19.00;12.27;;;;;;;3.93;100.00;98015.16;5093503;28;20274;-71
2021/03/09 02:48:00;;;;;;;16.30;11.67;;;;;;;3.88;100.00;98015.25;5094225;28;20209;-71
2021/03/09 02:50:27;;;;;;;18.43;12.50;;;;;;;3.90;100.00;98017.69;5094310;28;20209;-71
2021/03/09 02:52:59;;;;;;;17.53;11.90;;;;;;;4.00;100.00;98017.50;5092662;28;20239;-71
2021/03/09 02:55:27;;;;;;;18.10;12.63;;;;;;;4.02;100.00;98016.09;5099302;28;20581;-71
2021/03/09 02:57:55;;;;;;;24.63;13.37;;;;;;;3.98;100.00;98009.59;5106292;28;20284;-71
2021/03/09 03:00:23;;;;;;;17.50;12.33;;;;;;;3.82;100.00;98010.97;5110215;28;20291;-71
2021/03/09 03:02:49;;;;;;;18.97;12.00;;;;;;;3.70;100.00;98009.81;5095965;28;20311;-71
2021/03/09 03:05:18;;;;;;;16.67;12.70;;;;;;;3.87;100.00;98005.41;5093751;28;20712;-71
2021/03/09 03:07:48;;;;;;;18.50;12.87;;;;;;;3.78;100.00;98003.66;5093719;28;20209;-71
2021/03/09 03:10:17;;;;;;;19.53;12.57;;;;;;;3.72;100.00;98005.66;5093527;28;20878;-72
2021/03/09 03:12:45;;;;;;;17.80;11.73;;;;;;;3.60;100.00;98004.47;5093418;28;20243;-71
2021/03/09 03:15:18;;;;;;;17.43;12.23;;;;;;;3.72;100.00;98010.31;5079218;28;20221;-71
2021/03/09 03:17:44;;;;;;;17.20;11.70;;;;;;;3.69;100.00;98006.25;5073317;28;20299;-72
2021/03/09 03:20:16;;;;;;;17.80;12.47;;;;;;;3.68;100.00;98001.91;5073047;28;20581;-72
2021/03/09 03:22:44;;;;;;;17.30;12.27;;;;;;;3.66;100.00;97998.66;5073221;28;20201;-72
2021/03/09 03:25:14;;;;;;;18.37;12.40;;;;;;;3.61;100.00;98001.47;5073256;28;20222;-72
2021/03/09 03:27:42;;;;;;;19.57;12.67;;;;;;;3.53;100.00;98007.59;5073155;28;20232;-72
2021/03/09 03:30:11;;;;;;;17.83;11.60;;;;;;;3.50;100.00;98001.91;5073186;28;20201;-72
2021/03/09 03:32:38;;;;;;;16.67;12.20;;;;;;;3.33;100.00;97996.97;5072852;28;20271;-72
2021/03/09 03:35:08;;;;;;;19.70;12.30;;;;;;;3.45;100.00;97997.34;5071024;28;20316;-71
2021/03/09 03:37:36;;;;;;;19.73;12.10;;;;;;;3.31;100.00;98004.63;5072801;28;20340;-71
2021/03/09 03:40:06;;;;;;;18.60;12.37;;;;;;;3.31;100.00;98001.91;5086816;28;20692;-72
2021/03/09 03:42:39;;;;;;;19.23;12.23;;;;;;;3.28;100.00;98001.69;5093130;28;20224;-72
2021/03/09 03:45:07;;;;;;;17.23;12.17;;;;;;;3.40;100.00;98000.13;5092423;28;20224;-72
2021/03/09 03:47:34;;;;;;;18.90;13.10;;;;;;;3.36;100.00;97996.38;5093002;28;20666;-72
2021/03/09 03:50:13;;;;;;;16.47;12.10;;;;;;;3.39;100.00;97995.00;5092957;28;20219;-71
2021/03/09 03:52:59;;;;;;;18.47;12.67;;;;;;;3.29;100.00;97998.66;5093152;28;20279;-71
2021/03/09 03:55:33;;;;;;;18.97;12.20;;;;;;;3.25;100.00;97989.44;5091893;28;20259;-71
2021/03/09 03:58:09;;;;;;;15.77;11.70;;;;;;;3.18;100.00;97997.19;5093059;28;20232;-71
2021/03/09 04:00:36;;;;;;;16.17;11.37;;;;;;;3.26;100.00;97991.06;5093251;28;20320;-72
2021/03/09 04:03:03;;;;;;;16.20;12.07;;;;;;;3.15;100.00;97996.94;5092238;28;20644;-72
2021/03/09 04:05:29;;;;;;;19.33;12.53;;;;;;;3.15;100.00;98000.50;5095967;28;20292;-72
2021/03/09 04:07:56;;;;;;;17.90;12.13;;;;;;;3.17;100.00;97992.03;5095436;28;20682;-72
2021/03/09 04:10:23;;;;;;;17.73;12.10;;;;;;;3.26;100.00;97991.06;5094356;28;20291;-72
2021/03/09 04:12:51;;;;;;;18.03;11.90;;;;;;;3.26;100.00;97990.25;5092290;28;20242;-73
2021/03/09 04:15:17;;;;;;;19.77;12.23;;;;;;;3.28;100.00;97994.31;5078911;28;20252;-72
2021/03/09 04:17:45;;;;;;;16.90;12.23;;;;;;;3.32;100.00;97986.38;5073112;28;21346;-72
2021/03/09 04:20:29;;;;;;;17.37;11.83;;;;;;;3.17;100.00;97992.84;5072912;28;20228;-71
2021/03/09 04:22:57;;;;;;;16.93;12.10;;;;;;;2.95;100.00;97992.59;5072455;28;20280;-72
2021/03/09 04:25:23;;;;;;;17.37;11.03;;;;;;;3.08;100.00;97989.16;5072596;28;20236;-72
2021/03/09 04:27:50;;;;;;;18.57;11.40;;;;;;;3.14;100.00;97992.63;5076946;28;20244;-72
2021/03/09 04:30:18;;;;;;;16.83;11.60;;;;;;;3.14;100.00;97977.03;5090189;28;20193;-73
2021/03/09 04:32:45;;;;;;;17.13;11.60;;;;;;;3.17;100.00;97986.56;5072243;28;20225;-71
2021/03/09 04:35:11;;;;;;;18.43;12.27;;;;;;;3.16;100.00;97982.22;5071574;28;20233;-72
2021/03/09 04:37:39;;;;;;;17.23;11.50;;;;;;;3.18;100.00;97983.53;5073396;28;20233;-73
2021/03/09 04:40:07;;;;;;;26.67;11.47;;;;;;;3.09;100.00;97979.84;5087487;28;20299;-72
2021/03/09 04:42:33;;;;;;;18.77;11.90;;;;;;;3.15;100.00;97983.31;5093219;28;20228;-72
2021/03/09 04:45:04;;;;;;;19.47;12.57;;;;;;;3.15;100.00;97981.41;5092624;28;20311;-72
2021/03/09 04:47:33;;;;;;;17.83;12.33;;;;;;;2.96;100.00;97981.38;5091845;28;20269;-71
2021/03/09 04:50:00;;;;;;;18.83;12.07;;;;;;;2.77;100.00;97977.78;5091291;28;20192;-73
2021/03/09 04:52:27;;;;;;;16.17;11.27;;;;;;;3.03;100.00;97991.91;5091644;28;20311;-72
2021/03/09 04:54:54;;;;;;;18.63;12.20;;;;;;;2.85;100.00;97989.97;5091381;28;20311;-71
2021/03/09 04:57:38;;;;;;;18.03;11.73;;;;;;;2.94;100.00;97985.50;5092656;28;20208;-71
2021/03/09 05:00:13;;;;;;;19.23;12.07;;;;;;;2.87;100.00;97987.75;5092487;28;20738;-72
2021/03/09 05:02:41;;;;;;;16.33;11.20;;;;;;;2.86;100.00;97991.59;5092636;28;20200;-72
2021/03/09 05:05:09;;;;;;;16.23;11.67;;;;;;;2.85;100.00;97989.97;5092244;28;20228;-71
2021/03/09 05:07:38;;;;;;;16.53;11.47;;;;;;;2.80;100.00;97982.69;5092335;28;20204;-71
2021/03/09 05:10:06;;;;;;;18.73;11.37;;;;;;;2.78;100.00;97989.50;5092435;28;20585;-72
2021/03/09 05:12:34;;;;;;;17.40;12.20;;;;;;;2.77;100.00;97985.19;5105677;28;20250;-73
2021/03/09 05:15:01;;;;;;;20.00;12.13;;;;;;;2.69;100.00;97985.81;5093212;28;20255;-72
2021/03/09 05:17:27;;;;;;;20.53;12.67;;;;;;;2.74;100.00;97988.47;5072460;28;20233;-72
2021/03/09 05:19:53;;;;;;;17.23;11.80;;;;;;;2.80;100.00;97981.88;5071071;28;20232;-72
2021/03/09 05:22:19;;;;;;;17.80;11.33;;;;;;;2.74;100.00;97983.84;5072151;28;20201;-71
2021/03/09 05:24:45;;;;;;;17.50;12.10;;;;;;;2.73;100.00;97990.41;5070234;28;20236;-71
2021/03/09 05:27:11;;;;;;;17.30;12.17;;;;;;;2.66;100.00;97989.94;5071079;28;20204;-71
2021/03/09 05:29:37;;;;;;;17.03;11.53;;;;;;;2.76;100.00;97986.25;5071187;28;20251;-71
2021/03/09 05:32:03;;;;;;;17.27;11.93;;;;;;;2.83;100.00;97987.53;5070972;28;20640;-71
2021/03/09 05:34:29;;;;;;;18.33;12.37;;;;;;;2.80;100.00;97985.41;5070668;28;20255;-71
2021/03/09 05:36:55;;;;;;;17.90;12.13;;;;;;;2.77;100.00;97987.91;5069706;28;20316;-71
2021/03/09 05:39:21;;;;;;;21.30;12.07;;;;;;;2.82;100.00;97988.66;5079695;28;20623;-71
2021/03/09 05:41:48;;;;;;;17.33;11.97;;;;;;;2.89;100.00;97991.00;5091415;28;20208;-71
2021/03/09 05:44:15;;;;;;;16.20;11.23;;;;;;;2.87;100.00;97998.66;5087989;28;20648;-70
2021/03/09 05:46:42;;;;;;;16.33;11.60;;;;;;;2.90;100.00;97987.19;5092607;28;20292;-69
2021/03/09 05:49:11;;;;;;;17.70;11.57;;;;;;;2.93;100.00;97992.06;5096769;28;20200;-70
2021/03/09 05:51:49;;;;;;;20.37;12.70;;;;;;;2.93;100.00;97997.50;5093404;28;20294;-71
2021/03/09 05:54:15;;;;;;;20.73;13.10;;;;;;;3.03;100.00;97991.91;5093735;28;20655;-71
2021/03/09 05:56:41;;;;;;;19.57;13.00;;;;;;;3.09;100.00;97998.94;5101298;28;20265;-71
2021/03/09 05:59:09;;;;;;;19.00;12.27;;;;;;;3.18;100.00;97991.72;5092334;28;20197;-70
2021/03/09 06:01:36;;;;;;;21.30;12.90;;;;;;;3.16;100.00;97988.47;5078232;28;20236;-71
2021/03/09 06:04:02;;;;;;;22.07;13.13;;;;;;;3.12;100.00;97989.38;5091891;28;20239;-70
2021/03/09 06:06:28;;;;;;;23.23;13.47;;;;;;;3.13;100.00;97994.53;5092889;28;20307;-70
2021/03/09 06:08:54;;;;;;;21.13;13.47;;;;;;;3.28;100.00;97990.78;5092400;28;20216;-69
2021/03/09 06:11:20;;;;;;;19.37;12.87;;;;;;;3.33;100.00;97996.97;5092348;28;20263;-70
2021/03/09 06:13:47;;;;;;;19.83;12.93;;;;;;;3.26;100.00;97985.63;5072627;28;20299;-69
2021/03/09 06:16:14;;;;;;;19.87;11.97;;;;;;;3.35;100.00;97989.31;5090973;28;20264;-69
2021/03/09 06:18:57;;;;;;;19.23;12.53;;;;;;;3.33;100.00;97996.97;5090193;28;20260;-69
2021/03/09 06:21:25;;;;;;;20.80;12.90;;;;;;;3.30;100.00;97988.56;5096205;28;20208;-70
2021/03/09 06:23:52;;;;;;;20.77;13.40;;;;;;;3.54;100.00;97992.84;5062948;28;20257;-70
2021/03/09 06:26:32;;;;;;;20.20;12.77;;;;;;;3.63;100.00;97988.34;5094316;28;20247;-71
2021/03/09 06:29:08;;;;;;;21.23;12.83;;;;;;;3.74;100.00;97991.75;5094674;28;20642;-71
2021/03/09 06:31:34;;;;;;;22.93;13.47;;;;;;;3.67;100.00;97991.28;5094931;28;20205;-72
2021/03/09 06:34:28;;;;;;;24.10;13.13;;;;;;;3.84;100.00;97997.03;5092302;28;20244;-71
2021/03/09 06:37:15;;;;;;;21.60;12.73;;;;;;;3.87;100.00;97997.22;5091524;28;20664;-72
2021/03/09 06:39:42;;;;;;;19.70;13.37;;;;;;;4.03;100.00;97990.41;5092997;28;20200;-70
2021/03/09 06:42:10;;;;;;;17.87;12.33;;;;;;;3.92;100.00;97994.41;5094657;28;20826;-70
2021/03/09 06:44:38;;;;;;;16.87;12.20;;;;;;;3.85;100.00;97994.00;5093918;28;20232;-71
2021/03/09 06:47:05;;;;;;;21.53;12.10;;;;;;;4.00;100.00;97996.47;5094255;28;20208;-71
2021/03/09 06:49:57;;;;;;;19.03;13.20;;;;;;;4.24;100.00;97995.53;5094775;28;20265;-71
2021/03/09 06:52:25;;;;;;;20.20;12.80;;;;;;;4.21;100.00;98007.06;5093355;28;20725;-70
2021/03/09 06:54:54;;;;;;;18.97;13.00;;;;;;;4.35;100.00;97999.69;5091815;28;20256;-71
2021/03/09 06:57:22;;;;;;;21.20;12.57;;;;;;;4.40;100.00;97999.63;5093918;28;20235;-71
2021/03/09 06:59:50;;;;;;;18.83;12.60;;;;;;;4.34;100.00;97998.91;5093042;28;20216;-71
2021/03/09 07:02:19;;;;;;;17.20;12.67;;;;;;;4.45;100.00;98002.25;5093480;28;20212;-71
2021/03/09 07:04:47;;;;;;;18.27;12.07;;;;;;;4.35;100.00;98002.44;5091988;28;20278;-71
2021/03/09 07:07:15;;;;;;;16.57;12.23;;;;;;;4.36;100.00;98004.84;5093214;28;20323;-71
2021/03/09 07:10:11;;;;;;;19.63;12.30;;;;;;;4.47;100.00;98003.56;5091145;28;20296;-71
2021/03/09 07:12:39;;;;;;;16.67;11.73;;;;;;;4.69;100.00;98014.63;5091269;28;20250;-72
2021/03/09 07:15:08;;;;;;;21.73;12.90;;;;;;;5.22;100.00;98003.19;5087165;28;20594;-70
2021/03/09 07:17:38;;;;;;;23.93;12.77;;;;;;;5.82;100.00;98004.56;5090781;28;20208;-71
2021/03/09 07:20:07;;;;;;;15.33;11.87;;;;;;;6.58;100.00;98000.75;5091952;28;20775;-72
2021/03/09 07:22:49;;;;;;;17.47;11.97;;;;;;;7.64;100.00;97995.75;5093349;28;20211;-73
2021/03/09 07:25:17;;;;;;;16.87;11.53;;;;;;;7.90;100.00;97994.63;5097381;28;20228;-72
2021/03/09 07:27:49;;;;;;;15.03;12.17;;;;;;;8.09;100.00;97997.03;5098892;28;20258;-72
2021/03/09 07:30:18;;;;;;;16.63;11.87;;;;;;;8.13;100.00;98001.59;5091813;28;20232;-71
2021/03/09 07:32:47;;;;;;;19.73;12.00;;;;;;;8.63;100.00;97995.53;5090996;28;20224;-72
2021/03/09 07:35:14;;;;;;;15.83;12.17;;;;;;;9.11;100.00;98007.00;5091671;28;20279;-72
2021/03/09 07:37:42;;;;;;;17.37;12.10;;;;;;;9.23;100.00;97998.84;5091879;28;20291;-72
2021/03/09 07:40:11;;;;;;;15.10;12.30;;;;;;;9.19;100.00;97997.91;5093943;28;20213;-72
2021/03/09 07:42:39;;;;;;;18.20;11.87;;;;;;;9.06;100.00;97993.41;5092429;28;20677;-72
2021/03/09 07:45:09;;;;;;;16.33;12.87;;;;;;;9.14;100.00;98000.84;5093802;28;20672;-72
2021/03/09 07:47:43;;;;;;;17.40;13.10;;;;;;;8.93;100.00;97997.19;5090858;28;20200;-73
2021/03/09 07:50:12;;;;;;;19.27;12.80;;;;;;;8.80;100.00;98000.97;5092437;28;20271;-73
2021/03/09 07:53:01;;;;;;;14.30;12.50;;;;;;;9.15;100.00;97999.69;5057980;28;20224;-72
2021/03/09 07:55:26;;;;;;;16.60;12.63;;;;;;;9.81;100.00;98000.75;5087438;28;20248;-72
2021/03/09 07:58:15;;;;;;;16.70;13.40;;;;;;;9.74;100.00;97998.53;5058057;28;20188;-71
2021/03/09 08:00:51;;;;;;;16.03;12.10;;;;;;;9.96;100.00;97992.66;5088288;28;20192;-71
2021/03/09 08:03:23;;;;;;;22.33;13.13;;;;;;;10.18;100.00;97992.34;5091788;28;20724;-71
2021/03/09 08:05:54;;;;;;;17.70;12.67;;;;;;;10.19;100.00;97993.97;5090815;28;20212;-72
2021/03/09 08:08:39;;;;;;;21.33;13.13;;;;;;;10.42;100.00;97996.38;5092921;28;20279;-73
2021/03/09 08:11:06;;;;;;;22.87;13.00;;;;;;;10.42;100.00;97990.84;5110595;28;20208;-72
2021/03/09 08:13:31;;;;;;;17.80;13.40;;;;;;;10.65;100.00;97986.53;5096905;28;20263;-72
2021/03/09 08:16:19;;;;;;;21.60;13.10;;;;;;;10.40;100.00;97993.91;5095522;28;20220;-73
2021/03/09 08:18:46;;;;;;;44.77;14.30;;;;;;;10.07;100.00;97990.31;5092846;28;20291;-74
2021/03/09 08:21:19;;;;;;;44.23;14.33;;;;;;;10.08;100.00;97991.94;5093068;28;20212;-73
2021/03/09 08:23:45;;;;;;;26.87;13.53;;;;;;;10.33;100.00;97987.38;5092833;28;20268;-72
2021/03/09 08:26:14;;;;;;;22.50;13.27;;;;;;;10.26;100.00;97987.09;5093569;28;20728;-72
2021/03/09 08:28:52;;;;;;;15.90;12.90;;;;;;;10.12;100.00;97977.16;5094467;28;20208;-73
2021/03/09 08:31:18;;;;;;;16.20;12.97;;;;;;;10.45;100.00;97979.94;5093542;28;20204;-72
2021/03/09 08:33:49;;;;;;;14.73;13.07;;;;;;;10.45;100.00;97981.88;5094324;28;20212;-72
2021/03/09 08:36:21;;;;;;;19.10;13.30;;;;;;;10.60;100.00;97986.75;5094496;28;20402;-73
2021/03/09 08:39:10;;;;;;;19.27;13.70;;;;;;;10.95;100.00;97979.66;5094339;28;20208;-73
2021/03/09 08:41:42;;;;;;;16.87;13.77;;;;;;;11.13;100.00;97983.84;5094198;28;20219;-73
2021/03/09 08:44:20;;;;;;;14.63;13.13;;;;;;;11.37;100.00;97975.53;5094928;28;20228;-73
2021/03/09 08:47:10;;;;;;;18.50;13.00;;;;;;;11.24;100.00;97971.16;5093885;28;20227;-74
2021/03/09 08:49:37;;;;;;;19.83;13.57;;;;;;;11.24;100.00;97974.75;5095861;28;20200;-72
2021/03/09 08:52:30;;;;;;;21.27;14.47;;;;;;;10.86;100.00;97973.44;5096999;28;20200;-73
2021/03/09 08:55:04;;;;;;;18.93;14.00;;;;;;;9.98;100.00;97970.31;5103703;28;20246;-73
2021/03/09 08:57:30;;;;;;;18.57;14.80;;;;;;;10.23;100.00;97971.22;5101485;28;20230;-72
2021/03/09 09:00:05;;;;;;;19.93;15.80;;;;;;;8.97;100.00;97973.38;5095395;28;20244;-72
2021/03/09 09:02:32;;;;;;;20.73;15.07;;;;;;;8.03;100.00;97974.41;5097153;28;20260;-72
2021/03/09 09:05:04;;;;;;;18.53;15.07;;;;;;;9.30;100.00;97971.59;5096824;28;20221;-74
2021/03/09 09:07:35;;;;;;;18.33;14.97;;;;;;;8.33;100.00;97980.88;5079152;28;20212;-72
2021/03/09 09:10:09;;;;;;;17.90;14.03;;;;;;;7.23;100.00;97982.44;5075879;28;20643;-72
2021/03/09 09:12:36;;;;;;;18.57;14.43;;;;;;;7.47;100.00;97977.31;5071716;28;20205;-72
2021/03/09 09:15:21;;;;;;;19.27;14.10;;;;;;;7.37;100.00;97980.38;5078720;28;20229;-73
2021/03/09 09:17:51;;;;;;;16.73;14.07;;;;;;;7.70;100.00;97973.28;5088772;28;20205;-73
2021/03/09 09:20:40;;;;;;;19.53;14.47;;;;;;;9.14;100.00;97970.56;5073773;28;20205;-71
2021/03/09 09:23:08;;;;;;;19.17;14.70;;;;;;;7.82;100.00;97976.22;5072260;28;20250;-72
2021/03/09 09:25:48;;;;;;;20.23;14.57;;;;;;;8.14;100.00;97972.13;5072350;28;21034;-73
2021/03/09 09:28:24;;;;;;;25.27;14.77;;;;;;;9.67;100.00;97964.38;5073736;28;20557;-72
2021/03/09 09:30:51;;;;;;;19.37;14.43;;;;;;;9.11;100.00;97954.69;5088291;28;20217;-71
2021/03/09 09:33:29;;;;;;;20.40;14.47;;;;;;;9.63;100.00;97966.19;5070516;28;20673;-72
2021/03/09 09:35:57;;;;;;;18.03;14.43;;;;;;;8.10;100.00;97971.97;5086747;28;20759;-72
2021/03/09 09:38:23;;;;;;;20.63;14.53;;;;;;;8.89;100.00;97963.22;5073103;28;20270;-71
2021/03/09 09:40:53;;;;;;;18.63;14.23;;;;;;;9.68;100.00;97963.22;5075629;28;20253;-72
2021/03/09 09:43:21;;;;;;;17.80;14.13;;;;;;;9.41;100.00;97958.25;5090876;28;20235;-72
2021/03/09 09:45:57;;;;;;;15.93;13.97;;;;;;;9.83;100.00;97963.44;5090810;28;20820;-73
2021/03/09 09:48:29;;;;;;;18.97;14.43;;;;;;;8.62;100.00;97960.91;5093672;28;20204;-72
2021/03/09 09:51:00;;;;;;;17.00;13.53;;;;;;;9.44;100.00;97955.63;5092900;28;20204;-71
2021/03/09 09:53:38;;;;;;;17.33;14.43;;;;;;;9.76;100.00;97951.34;5074401;28;20234;-72
2021/03/09 09:56:06;;;;;;;16.27;14.27;;;;;;;9.90;100.00;97949.94;5097401;28;20228;-71
2021/03/09 09:58:41;;;;;;;19.00;13.10;;;;;;;8.47;100.00;97956.75;5094898;28;20254;-73
2021/03/09 10:01:07;;;;;;;18.03;14.27;;;;;;;8.77;100.00;97957.63;5097429;28;20241;-72
2021/03/09 10:03:33;;;;;;;19.60;13.33;;;;;;;8.10;100.00;97955.50;5095370;28;20236;-71
2021/03/09 10:06:21;;;;;;;18.80;14.30;;;;;;;9.71;100.00;97944.06;5094760;28;20216;-72
2021/03/09 10:08:47;;;;;;;21.90;14.53;;;;;;;9.68;100.00;97946.69;5097674;28;20696;-72
2021/03/09 10:11:13;;;;;;;17.73;14.00;;;;;;;9.97;100.00;97941.91;5079860;28;20213;-72
2021/03/09 10:13:39;;;;;;;20.10;14.10;;;;;;;10.14;100.00;97949.25;5096817;28;20243;-72
2021/03/09 10:16:05;;;;;;;17.57;13.60;;;;;;;9.71;100.00;97941.31;5095390;28;20254;-74
2021/03/09 10:18:34;;;;;;;23.00;14.07;;;;;;;9.37;100.00;97954.53;5096816;28;20205;-72
2021/03/09 10:21:08;;;;;;;20.03;14.60;;;;;;;8.80;100.00;97952.25;5104785;28;20208;-72
2021/03/09 10:23:51;;;;;;;17.40;13.97;;;;;;;9.26;100.00;97945.03;5108711;28;20221;-72
2021/03/09 10:26:38;;;;;;;20.23;15.20;;;;;;;9.85;100.00;97941.84;5097160;28;20717;-71
2021/03/09 10:29:13;;;;;;;17.97;13.73;;;;;;;9.79;100.00;97947.91;5094599;28;20222;-72
2021/03/09 10:31:46;;;;;;;18.17;13.53;;;;;;;9.89;100.00;97936.50;5090629;28;20225;-69
2021/03/09 10:34:14;;;;;;;18.90;15.00;;;;;;;10.46;100.00;97936.56;5092509;28;20208;-70
2021/03/09 10:36:52;;;;;;;20.43;13.67;;;;;;;10.90;100.00;97933.78;5092263;28;20244;-71
2021/03/09 10:39:18;;;;;;;18.87;13.23;;;;;;;10.82;100.00;97944.94;5093847;28;20240;-72
2021/03/09 10:41:44;;;;;;;18.30;13.63;;;;;;;10.18;100.00;97934.44;5095889;28;20296;-71
2021/03/09 10:44:30;;;;;;;16.23;13.93;;;;;;;10.44;100.00;97933.38;5097470;28;20282;-71
2021/03/09 10:46:57;;;;;;;17.57;13.23;;;;;;;10.01;100.00;97934.59;5096377;28;20296;-70
2021/03/09 10:49:24;;;;;;;17.07;14.70;;;;;;;10.43;100.00;97931.75;5093183;28;20200;-73
2021/03/09 10:52:01;;;;;;;21.17;15.03;;;;;;;10.75;100.00;97933.63;5092800;28;20258;-72
2021/03/09 10:54:29;;;;;;;15.60;13.90;;;;;;;10.82;100.00;97928.38;5092290;28;20231;-72
2021/03/09 10:56:56;;;;;;;17.20;14.60;;;;;;;10.48;100.00;97935.09;5092449;28;20250;-71
2021/03/09 10:59:23;;;;;;;18.97;13.90;;;;;;;9.84;100.00;97931.97;5091806;28;20205;-71
2021/03/09 11:01:49;;;;;;;17.47;13.60;;;;;;;9.79;100.00;97934.13;5094779;28;20212;-71
2021/03/09 11:04:16;;;;;;;17.40;14.20;;;;;;;10.04;100.00;97925.63;5092278;28;20749;-73
2021/03/09 11:06:42;;;;;;;17.50;13.67;;;;;;;10.08;100.00;97925.75;5106122;28;20254;-72
2021/03/09 11:09:08;;;;;;;16.03;13.43;;;;;;;10.36;100.00;97923.22;5091630;28;20319;-75
2021/03/09 11:11:34;;;;;;;19.17;14.23;;;;;;;10.17;100.00;97916.28;5087005;28;20200;-73
2021/03/09 11:14:00;;;;;;;16.10;13.10;;;;;;;10.53;100.00;97914.78;5091584;28;20218;-71
2021/03/09 11:16:30;;;;;;;20.37;14.70;;;;;;;10.07;100.00;97913.91;5093030;28;20208;-71
2021/03/09 11:19:00;;;;;;;17.90;14.50;;;;;;;10.51;100.00;97911.56;5091531;28;20200;-72
2021/03/09 11:21:27;;;;;;;17.87;13.57;;;;;;;10.74;100.00;97905.25;5093482;28;20208;-70
2021/03/09 11:23:56;;;;;;;20.00;14.33;;;;;;;10.79;100.00;97907.78;5090463;28;20239;-71
2021/03/09 11:26:25;;;;;;;19.97;14.20;;;;;;;10.85;100.00;97906.41;5092398;28;20209;-73
2021/03/09 11:28:53;;;;;;;18.03;13.93;;;;;;;10.58;100.00;97909.03;5091758;28;20246;-73
2021/03/09 11:31:20;;;;;;;23.63;14.77;;;;;;;10.46;100.00;97911.75;5090919;28;20247;-73
2021/03/09 11:33:47;;;;;;;19.97;14.30;;;;;;;10.53;100.00;97909.25;5090903;28;20296;-71
2021/03/09 11:36:14;;;;;;;23.10;14.23;;;;;;;10.76;100.00;97902.16;5090778;28;20220;-72
2021/03/09 11:38:44;;;;;;;20.53;13.97;;;;;;;10.50;100.00;97901.66;5091081;28;20201;-73
2021/03/09 11:41:12;;;;;;;18.57;14.77;;;;;;;10.54;100.00;97895.13;5093850;28;20277;-71
2021/03/09 11:43:43;;;;;;;19.40;14.27;;;;;;;10.71;100.00;97894.88;5089762;28;20244;-72
2021/03/09 11:46:09;;;;;;;20.73;14.23;;;;;;;10.65;100.00;97901.81;5092287;28;20312;-72
2021/03/09 11:48:36;;;;;;;21.20;14.77;;;;;;;10.64;100.00;97902.94;5099012;28;20649;-73
2021/03/09 11:51:03;;;;;;;18.20;14.47;;;;;;;10.64;100.00;97889.13;5099105;28;20205;-73
2021/03/09 11:53:31;;;;;;;20.23;14.73;;;;;;;10.67;100.00;97890.41;5092903;28;21057;-72
2021/03/09 11:55:57;;;;;;;19.87;14.63;;;;;;;10.75;100.00;97887.53;5092799;28;20545;-73
2021/03/09 11:58:25;;;;;;;18.27;14.60;;;;;;;10.87;100.00;97887.56;5090895;28;20717;-72
2021/03/09 12:00:51;;;;;;;17.37;13.90;;;;;;;10.97;100.00;97881.56;5091607;28;20271;-73